Time,TemperatureF,DewpointF,PressureIn,WindDirection,WindDirectionDegrees,WindSpeedMPH,WindSpeedGustMPH,Humidity,HourlyPrecipIn,Conditions,Clouds,dailyrainin,SoftwareType,DateUTC
2013-01-04 00:02:00,-5.0,-10.0,29.81,NNW,338,0.7,0.7,79,0.00,,,0.00,WUHU216HW,2013-01-04 05:02:00,
2013-01-04 00:07:00,-4.9,-9.8,29.81,NNW,338,0.4,0.7,79,0.00,,,0.00,WUHU216HW,2013-01-04 05:07:00,
2013-01-04 00:12:00,-4.7,-9.6,29.81,NNW,338,0.2,0.4,79,0.00,,,0.00,WUHU216HW,2013-01-04 05:12:00,
2013-01-04 00:18:00,-4.1,-9.1,29.81,NNW,338,0.9,0.9,79,0.00,,,0.00,WUHU216HW,2013-01-04 05:18:00,
2013-01-04 00:23:00,-4.0,-8.9,29.80,NNW,338,0.2,0.9,79,0.00,,,0.00,WUHU216HW,2013-01-04 05:23:00,
2013-01-04 00:28:00,-4.0,-8.9,29.80,NNW,338,0.2,0.9,79,0.00,,,0.00,WUHU216HW,2013-01-04 05:28:00,
2013-01-04 00:33:00,-3.8,-8.7,29.80,NNW,338,0.0,0.7,79,0.00,,,0.00,WUHU216HW,2013-01-04 05:33:00,
2013-01-04 00:38:00,-3.6,-8.3,29.80,NNW,338,0.0,0.7,80,0.00,,,0.00,WUHU216HW,2013-01-04 05:38:00,
2013-01-04 00:43:00,-3.4,-8.4,29.80,NNW,338,0.0,0.0,79,0.00,,,0.00,WUHU216HW,2013-01-04 05:43:00,
2013-01-04 00:48:00,-3.2,-8.2,29.80,NNW,338,0.0,0.0,79,0.00,,,0.00,WUHU216HW,2013-01-04 05:48:00,
2013-01-04 00:53:00,-3.2,-7.9,29.80,NNW,338,0.0,0.2,80,0.00,,,0.00,WUHU216HW,2013-01-04 05:53:00,
2013-01-04 00:58:00,-3.2,-8.2,29.80,NNW,338,0.4,0.4,79,0.00,,,0.00,WUHU216HW,2013-01-04 05:58:00,
2013-01-04 01:03:00,-3.6,-8.5,29.80,NNW,338,0.4,0.4,79,0.00,,,0.00,WUHU216HW,2013-01-04 06:03:00,
2013-01-04 01:08:00,-4.0,-8.6,29.80,NNW,338,0.7,0.7,80,0.00,,,0.00,WUHU216HW,2013-01-04 06:08:00,
2013-01-04 01:13:00,-4.0,-8.6,29.80,NW,315,0.2,1.3,80,0.00,,,0.00,WUHU216HW,2013-01-04 06:13:00,
2013-01-04 01:18:00,-4.0,-8.9,29.80,NW,315,0.4,1.3,79,0.00,,,0.00,WUHU216HW,2013-01-04 06:18:00,
2013-01-04 01:23:00,-4.0,-8.6,29.80,NNE,23,0.2,0.7,80,0.00,,,0.00,WUHU216HW,2013-01-04 06:23:00,
2013-01-04 01:28:00,-4.1,-9.1,29.80,NNE,23,0.0,0.4,79,0.00,,,0.00,WUHU216HW,2013-01-04 06:28:00,
2013-01-04 01:33:00,-4.3,-9.3,29.79,NNE,23,0.0,0.0,79,0.00,,,0.00,WUHU216HW,2013-01-04 06:33:00,
2013-01-04 01:38:00,-4.5,-9.4,29.79,NNE,23,0.0,0.0,79,0.00,,,0.00,WUHU216HW,2013-01-04 06:38:00,
2013-01-04 01:43:00,-4.7,-9.6,29.79,NNE,23,0.0,0.0,79,0.00,,,0.00,WUHU216HW,2013-01-04 06:43:00,
2013-01-04 01:48:00,-5.0,-10.0,29.79,NNE,23,0.0,0.0,79,0.00,,,0.00,WUHU216HW,2013-01-04 06:48:00,
2013-01-04 01:53:00,-5.2,-10.2,29.79,NNE,23,0.0,0.0,79,0.00,,,0.00,WUHU216HW,2013-01-04 06:53:00,
2013-01-04 01:58:00,-5.4,-10.6,29.79,NNE,23,0.0,0.0,78,0.00,,,0.00,WUHU216HW,2013-01-04 06:58:00,
2013-01-04 02:03:00,-5.4,-10.6,29.79,NNE,23,0.0,0.0,78,0.00,,,0.00,WUHU216HW,2013-01-04 07:03:00,
2013-01-04 02:08:00,-5.6,-10.8,29.79,North,0,0.7,0.7,78,0.00,,,0.00,WUHU216HW,2013-01-04 07:08:00,
2013-01-04 02:13:00,-5.8,-11.0,29.79,WNW,293,0.2,0.7,78,0.00,,,0.00,WUHU216HW,2013-01-04 07:13:00,
2013-01-04 02:18:00,-5.6,-10.8,29.79,WNW,293,0.0,0.7,78,0.00,,,0.00,WUHU216HW,2013-01-04 07:18:00,
2013-01-04 02:23:00,-5.6,-10.5,29.79,North,0,0.2,0.7,79,0.00,,,0.00,WUHU216HW,2013-01-04 07:23:00,
2013-01-04 02:28:00,-5.9,-10.9,29.79,NNW,338,1.1,1.1,79,0.00,,,0.00,WUHU216HW,2013-01-04 07:28:00,
2013-01-04 02:33:00,-5.9,-10.9,29.79,NNW,338,1.3,1.3,79,0.00,,,0.00,WUHU216HW,2013-01-04 07:33:00,
2013-01-04 02:38:00,-5.4,-10.3,29.79,NW,315,1.1,1.3,79,0.00,,,0.00,WUHU216HW,2013-01-04 07:38:00,
2013-01-04 02:43:00,-4.7,-9.6,29.79,NNW,338,0.4,1.1,79,0.00,,,0.00,WUHU216HW,2013-01-04 07:43:00,
2013-01-04 02:48:00,-4.1,-8.8,29.79,NNW,338,1.1,1.1,80,0.00,,,0.00,WUHU216HW,2013-01-04 07:48:00,
2013-01-04 02:53:00,-4.0,-8.6,29.79,NNW,338,0.4,1.1,80,0.00,,,0.00,WUHU216HW,2013-01-04 07:53:00,
2013-01-04 02:58:00,-3.6,-8.3,29.79,NW,315,1.1,1.1,80,0.00,,,0.00,WUHU216HW,2013-01-04 07:58:00,
2013-01-04 03:03:00,-3.4,-8.1,29.79,West,270,0.4,1.1,80,0.00,,,0.00,WUHU216HW,2013-01-04 08:03:00,
2013-01-04 03:08:00,-3.2,-7.9,29.79,West,270,0.0,0.9,80,0.00,,,0.00,WUHU216HW,2013-01-04 08:08:00,
2013-01-04 03:13:00,-3.2,-8.2,29.78,West,270,0.0,0.4,79,0.00,,,0.00,WUHU216HW,2013-01-04 08:13:00,
2013-01-04 03:18:00,-3.1,-8.0,29.78,ESE,113,0.0,0.4,79,0.00,,,0.00,WUHU216HW,2013-01-04 08:18:00,
2013-01-04 03:24:00,-2.9,-7.8,29.78,North,0,0.0,0.4,79,0.00,,,0.00,WUHU216HW,2013-01-04 08:24:00,
2013-01-04 03:29:00,-2.5,-7.5,29.79,NW,315,0.2,0.7,79,0.00,,,0.00,WUHU216HW,2013-01-04 08:29:00,
2013-01-04 03:34:00,-2.5,-7.5,29.78,NW,315,0.2,0.7,79,0.00,,,0.00,WUHU216HW,2013-01-04 08:34:00,
2013-01-04 03:39:00,-2.2,-7.1,29.79,SSE,158,0.0,0.2,79,0.00,,,0.00,WUHU216HW,2013-01-04 08:39:00,
2013-01-04 03:44:00,-2.0,-6.9,29.79,WSW,248,0.0,0.2,79,0.00,,,0.00,WUHU216HW,2013-01-04 08:44:00,
2013-01-04 03:49:00,-1.8,-6.7,29.79,WSW,248,0.0,0.2,79,0.00,,,0.00,WUHU216HW,2013-01-04 08:49:00,
2013-01-04 03:54:00,-1.4,-6.4,29.78,WSW,248,0.0,0.0,79,0.00,,,0.00,WUHU216HW,2013-01-04 08:54:00,
2013-01-04 03:59:00,-1.3,-6.2,29.78,NNW,338,0.4,0.4,79,0.00,,,0.00,WUHU216HW,2013-01-04 08:59:00,
2013-01-04 04:04:00,-1.1,-6.0,29.78,NNW,338,0.7,0.7,79,0.00,,,0.00,WUHU216HW,2013-01-04 09:04:00,
2013-01-04 04:09:00,-1.1,-6.0,29.78,NNW,338,0.4,0.7,79,0.00,,,0.00,WUHU216HW,2013-01-04 09:09:00,
2013-01-04 04:14:00,-1.1,-6.0,29.78,NW,315,0.2,0.7,79,0.00,,,0.00,WUHU216HW,2013-01-04 09:14:00,
2013-01-04 04:19:00,-0.9,-5.8,29.78,NNW,338,0.0,0.7,79,0.00,,,0.00,WUHU216HW,2013-01-04 09:19:00,
2013-01-04 04:24:00,-0.9,-5.8,29.77,NNW,338,0.0,0.4,79,0.00,,,0.00,WUHU216HW,2013-01-04 09:24:00,
2013-01-04 04:29:00,-0.5,-5.5,29.77,NNW,338,0.0,0.0,79,0.00,,,0.00,WUHU216HW,2013-01-04 09:29:00,
2013-01-04 04:34:00,-0.4,-5.3,29.77,NNW,338,0.0,0.4,79,0.00,,,0.00,WUHU216HW,2013-01-04 09:34:00,
2013-01-04 04:39:00,-0.2,-5.1,29.77,NNW,338,0.0,0.4,79,0.00,,,0.00,WUHU216HW,2013-01-04 09:39:00,
2013-01-04 04:44:00,0.0,-5.0,29.77,ENE,68,0.2,0.2,79,0.00,,,0.00,WUHU216HW,2013-01-04 09:44:00,
2013-01-04 04:49:00,0.2,-4.9,29.77,NE,45,0.0,0.2,79,0.00,,,0.00,WUHU216HW,2013-01-04 09:49:00,
2013-01-04 04:54:00,0.4,-4.7,29.77,NE,45,0.0,0.0,79,0.00,,,0.00,WUHU216HW,2013-01-04 09:54:00,
2013-01-04 04:59:00,0.5,-4.5,29.77,NE,45,0.0,0.0,79,0.00,,,0.00,WUHU216HW,2013-01-04 09:59:00,
2013-01-04 05:04:00,0.7,-4.3,29.77,NNW,338,0.0,1.1,79,0.00,,,0.00,WUHU216HW,2013-01-04 10:04:00,
2013-01-04 05:09:00,0.7,-4.3,29.77,NNW,338,0.0,1.1,79,0.00,,,0.00,WUHU216HW,2013-01-04 10:09:00,
2013-01-04 05:14:00,0.9,-4.5,29.76,NE,45,0.0,0.2,78,0.00,,,0.00,WUHU216HW,2013-01-04 10:14:00,
2013-01-04 05:19:00,1.1,-4.3,29.76,NE,45,0.0,0.2,78,0.00,,,0.00,WUHU216HW,2013-01-04 10:19:00,
2013-01-04 05:24:00,1.3,-4.1,29.76,NE,45,0.0,0.0,78,0.00,,,0.00,WUHU216HW,2013-01-04 10:24:00,
2013-01-04 05:29:00,1.3,-4.1,29.76,North,0,0.0,0.4,78,0.00,,,0.00,WUHU216HW,2013-01-04 10:29:00,
2013-01-04 05:34:00,1.4,-4.0,29.76,North,0,0.4,0.4,78,0.00,,,0.00,WUHU216HW,2013-01-04 10:34:00,
2013-01-04 05:39:00,1.6,-3.8,29.76,WNW,293,0.0,0.4,78,0.00,,,0.00,WUHU216HW,2013-01-04 10:39:00,
2013-01-04 05:44:00,1.6,-3.8,29.77,North,0,0.0,0.4,78,0.00,,,0.00,WUHU216HW,2013-01-04 10:44:00,
2013-01-04 05:49:00,1.6,-3.8,29.76,North,0,0.4,1.1,78,0.00,,,0.00,WUHU216HW,2013-01-04 10:49:00,
2013-01-04 05:54:00,1.8,-3.6,29.77,North,0,0.2,1.1,78,0.00,,,0.00,WUHU216HW,2013-01-04 10:54:00,
2013-01-04 05:59:00,1.8,-3.6,29.76,WSW,248,0.7,0.9,78,0.00,,,0.00,WUHU216HW,2013-01-04 10:59:00,
2013-01-04 06:04:00,2.0,-3.4,29.76,WSW,248,0.0,0.9,78,0.00,,,0.00,WUHU216HW,2013-01-04 11:04:00,
2013-01-04 06:10:00,2.2,-3.2,29.77,WSW,248,0.2,0.2,78,0.00,,,0.00,WUHU216HW,2013-01-04 11:10:00,
2013-01-04 06:15:00,2.2,-3.2,29.77,WSW,248,0.2,0.4,78,0.00,,,0.00,WUHU216HW,2013-01-04 11:15:00,
2013-01-04 06:20:00,2.3,-3.1,29.77,SW,225,0.0,0.4,78,0.00,,,0.00,WUHU216HW,2013-01-04 11:20:00,
2013-01-04 06:25:00,2.5,-2.9,29.77,WNW,293,0.2,0.4,78,0.00,,,0.00,WUHU216HW,2013-01-04 11:25:00,
2013-01-04 06:30:00,2.3,-3.1,29.77,NNW,338,0.4,0.7,78,0.00,,,0.00,WUHU216HW,2013-01-04 11:30:00,
2013-01-04 06:35:00,2.5,-2.9,29.77,NW,315,0.2,0.7,78,0.00,,,0.00,WUHU216HW,2013-01-04 11:35:00,
2013-01-04 06:40:00,2.5,-2.9,29.77,NW,315,0.0,0.4,78,0.00,,,0.00,WUHU216HW,2013-01-04 11:40:00,
2013-01-04 06:45:00,2.7,-2.4,29.77,NW,315,0.0,0.7,79,0.00,,,0.00,WUHU216HW,2013-01-04 11:45:00,
2013-01-04 06:50:00,2.9,-2.2,29.77,NW,315,0.0,0.7,79,0.00,,,0.00,WUHU216HW,2013-01-04 11:50:00,
2013-01-04 06:55:00,2.9,-2.2,29.77,NW,315,0.0,0.4,79,0.00,,,0.00,WUHU216HW,2013-01-04 11:55:00,
2013-01-04 07:00:00,3.1,-2.1,29.76,NW,315,0.0,0.2,79,0.00,,,0.00,WUHU216HW,2013-01-04 12:00:00,
2013-01-04 07:05:00,3.2,-1.9,29.76,WSW,248,0.0,0.4,79,0.00,,,0.00,WUHU216HW,2013-01-04 12:05:00,
2013-01-04 07:10:00,3.2,-1.9,29.76,SSE,158,0.7,0.7,79,0.00,,,0.00,WUHU216HW,2013-01-04 12:10:00,
2013-01-04 07:15:00,3.4,-1.7,29.75,NE,45,0.2,0.9,79,0.00,,,0.00,WUHU216HW,2013-01-04 12:15:00,
2013-01-04 07:20:00,3.4,-1.7,29.75,North,0,0.0,0.9,79,0.00,,,0.00,WUHU216HW,2013-01-04 12:20:00,
2013-01-04 07:25:00,3.4,-1.7,29.75,North,0,0.0,0.7,79,0.00,,,0.00,WUHU216HW,2013-01-04 12:25:00,
2013-01-04 07:30:00,3.6,-1.5,29.75,North,0,0.0,0.7,79,0.00,,,0.00,WUHU216HW,2013-01-04 12:30:00,
2013-01-04 07:35:00,3.8,-1.3,29.75,NNW,338,0.7,0.7,79,0.00,,,0.00,WUHU216HW,2013-01-04 12:35:00,
2013-01-04 07:40:00,4.0,-1.2,29.75,NNW,338,0.0,0.7,79,0.00,,,0.00,WUHU216HW,2013-01-04 12:40:00,
2013-01-04 07:45:00,4.0,-1.2,29.74,West,270,0.4,0.4,79,0.00,,,0.00,WUHU216HW,2013-01-04 12:45:00,
2013-01-04 07:50:00,4.1,-1.0,29.74,East,90,0.0,0.7,79,0.00,,,0.00,WUHU216HW,2013-01-04 12:50:00,
2013-01-04 07:55:00,4.3,-1.1,29.74,ESE,113,0.4,0.7,78,0.00,,,0.00,WUHU216HW,2013-01-04 12:55:00,
2013-01-04 08:00:00,4.5,-0.9,29.73,SE,135,1.1,1.1,78,0.00,,,0.00,WUHU216HW,2013-01-04 13:00:00,
2013-01-04 08:05:00,4.7,-0.7,29.72,SE,135,0.4,1.1,78,0.00,,,0.00,WUHU216HW,2013-01-04 13:05:00,
2013-01-04 08:10:00,4.9,-0.5,29.73,ESE,113,0.4,1.1,78,0.00,,,0.00,WUHU216HW,2013-01-04 13:10:00,
2013-01-04 08:15:00,4.9,-0.5,29.72,SE,135,0.7,1.1,78,0.00,,,0.00,WUHU216HW,2013-01-04 13:15:00,
2013-01-04 08:20:00,5.0,-0.3,29.72,SE,135,0.0,1.1,78,0.00,,,0.00,WUHU216HW,2013-01-04 13:20:00,
2013-01-04 08:25:00,5.2,-0.2,29.72,SE,135,0.0,1.1,78,0.00,,,0.00,WUHU216HW,2013-01-04 13:25:00,
2013-01-04 08:30:00,5.4,0.0,29.72,SSE,158,0.4,0.4,78,0.00,,,0.00,WUHU216HW,2013-01-04 13:30:00,
2013-01-04 08:35:00,5.6,0.2,29.72,East,90,0.0,0.4,78,0.00,,,0.00,WUHU216HW,2013-01-04 13:35:00,
2013-01-04 08:40:00,5.8,0.4,29.72,ESE,113,0.4,0.4,78,0.00,,,0.00,WUHU216HW,2013-01-04 13:40:00,
2013-01-04 08:45:00,5.9,0.6,29.72,SE,135,0.0,0.4,78,0.00,,,0.00,WUHU216HW,2013-01-04 13:45:00,
2013-01-04 08:50:00,5.9,0.6,29.72,NNW,338,0.4,0.4,78,0.00,,,0.00,WUHU216HW,2013-01-04 13:50:00,
2013-01-04 08:55:00,6.1,0.7,29.73,NNW,338,0.7,0.7,78,0.00,,,0.00,WUHU216HW,2013-01-04 13:55:00,
2013-01-04 09:00:00,6.3,0.9,29.72,NNW,338,0.0,0.7,78,0.00,,,0.00,WUHU216HW,2013-01-04 14:00:00,
2013-01-04 09:05:00,6.7,1.3,29.72,SE,135,0.0,0.7,78,0.00,,,0.00,WUHU216HW,2013-01-04 14:05:00,
2013-01-04 09:10:00,7.0,1.6,29.72,NNW,338,0.4,0.4,78,0.00,,,0.00,WUHU216HW,2013-01-04 14:10:00,
2013-01-04 09:15:00,7.4,2.0,29.72,NNW,338,0.4,0.4,78,0.00,,,0.00,WUHU216HW,2013-01-04 14:15:00,
2013-01-04 09:20:00,7.6,2.4,29.72,North,0,0.4,0.4,79,0.00,,,0.00,WUHU216HW,2013-01-04 14:20:00,
2013-01-04 09:25:00,7.7,2.4,29.72,North,0,0.0,0.4,78,0.00,,,0.00,WUHU216HW,2013-01-04 14:25:00,
2013-01-04 09:30:00,7.9,2.5,29.72,NNW,338,1.1,1.1,78,0.00,,,0.00,WUHU216HW,2013-01-04 14:30:00,
2013-01-04 09:35:00,7.9,2.5,29.71,NW,315,0.0,1.8,78,0.00,,,0.00,WUHU216HW,2013-01-04 14:35:00,
2013-01-04 09:40:00,8.6,3.3,29.71,ESE,113,1.1,2.9,78,0.00,,,0.00,WUHU216HW,2013-01-04 14:40:00,
2013-01-04 09:46:00,9.5,4.1,29.71,SE,135,0.9,2.9,78,0.00,,,0.00,WUHU216HW,2013-01-04 14:46:00,
2013-01-04 09:51:00,10.6,5.1,29.71,SE,135,0.4,2.5,78,0.00,,,0.00,WUHU216HW,2013-01-04 14:51:00,
2013-01-04 09:56:00,11.7,6.1,29.70,SSE,158,4.0,4.0,78,0.00,,,0.00,WUHU216HW,2013-01-04 14:56:00,
2013-01-04 10:01:00,12.8,6.8,29.70,SSE,158,1.8,4.5,77,0.00,,,0.00,WUHU216HW,2013-01-04 15:01:00,
2013-01-04 10:06:00,14.4,8.5,29.70,WSW,248,0.7,4.5,77,0.00,,,0.00,WUHU216HW,2013-01-04 15:06:00,
2013-01-04 10:11:00,16.9,8.8,29.70,SE,135,1.3,4.9,70,0.00,,,0.00,WUHU216HW,2013-01-04 15:11:00,
2013-01-04 10:16:00,19.8,12.8,29.70,SSE,158,4.9,4.9,74,0.00,,,0.00,WUHU216HW,2013-01-04 15:16:00,
2013-01-04 10:21:00,21.6,14.6,29.69,SSE,158,4.0,4.9,74,0.00,,,0.00,WUHU216HW,2013-01-04 15:21:00,
2013-01-04 10:26:00,24.5,16.4,29.69,West,270,0.0,4.0,71,0.00,,,0.00,WUHU216HW,2013-01-04 15:26:00,
2013-01-04 10:31:00,27.0,19.8,29.69,SE,135,1.8,3.4,74,0.00,,,0.00,WUHU216HW,2013-01-04 15:31:00,
2013-01-04 10:36:00,29.2,22.2,29.68,SSE,158,2.0,3.4,75,0.00,,,0.00,WUHU216HW,2013-01-04 15:36:00,
2013-01-04 10:41:00,30.4,23.4,29.68,SSE,158,4.5,4.5,75,0.00,,,0.00,WUHU216HW,2013-01-04 15:41:00,
2013-01-04 10:46:00,31.3,23.9,29.68,West,270,0.7,4.5,74,0.00,,,0.00,WUHU216HW,2013-01-04 15:46:00,
2013-01-04 10:51:00,32.0,24.0,29.68,ENE,68,0.4,3.6,72,0.00,,,0.00,WUHU216HW,2013-01-04 15:51:00,
2013-01-04 10:56:00,32.2,24.6,29.67,SE,135,2.9,4.7,73,0.00,,,0.00,WUHU216HW,2013-01-04 15:56:00,
2013-01-04 11:01:00,32.4,24.4,29.67,SE,135,4.9,4.9,72,0.00,,,0.00,WUHU216HW,2013-01-04 16:01:00,
2013-01-04 11:06:00,32.2,23.2,29.66,NNW,338,2.2,6.5,69,0.00,,,0.00,WUHU216HW,2013-01-04 16:06:00,
2013-01-04 11:11:00,32.4,23.8,29.65,SE,135,7.4,7.4,70,0.00,,,0.00,WUHU216HW,2013-01-04 16:11:00,
2013-01-04 11:16:00,32.8,24.0,29.65,ESE,113,2.5,7.4,70,0.00,,,0.00,WUHU216HW,2013-01-04 16:16:00,
2013-01-04 11:21:00,32.8,23.3,29.66,SSE,158,3.1,5.6,68,0.00,,,0.00,WUHU216HW,2013-01-04 16:21:00,
2013-01-04 11:26:00,32.8,23.7,29.66,SSE,158,4.0,5.6,69,0.00,,,0.00,WUHU216HW,2013-01-04 16:26:00,
2013-01-04 11:31:00,32.8,23.7,29.66,ESE,113,2.5,4.0,69,0.00,,,0.00,WUHU216HW,2013-01-04 16:31:00,
2013-01-04 11:36:00,32.4,23.1,29.66,SSW,203,4.3,8.1,68,0.00,,,0.00,WUHU216HW,2013-01-04 16:36:00,
2013-01-04 11:41:00,32.0,22.3,29.66,South,180,6.3,8.7,67,0.00,,,0.00,WUHU216HW,2013-01-04 16:41:00,
2013-01-04 11:46:00,32.4,23.4,29.66,North,0,0.2,8.7,69,0.00,,,0.00,WUHU216HW,2013-01-04 16:46:00,
2013-01-04 11:51:00,32.6,23.9,29.65,SE,135,1.3,5.1,70,0.00,,,0.00,WUHU216HW,2013-01-04 16:51:00,
2013-01-04 11:56:00,32.8,24.0,29.65,East,90,0.2,5.1,70,0.00,,,0.00,WUHU216HW,2013-01-04 16:56:00,
2013-01-04 12:01:00,32.8,23.7,29.65,South,180,3.6,3.6,69,0.00,,,0.00,WUHU216HW,2013-01-04 17:01:00,
2013-01-04 12:06:00,32.6,23.5,29.65,SE,135,3.4,3.6,69,0.00,,,0.00,WUHU216HW,2013-01-04 17:06:00,
2013-01-04 12:11:00,32.4,23.8,29.64,SW,225,0.9,3.6,70,0.00,,,0.00,WUHU216HW,2013-01-04 17:11:00,
2013-01-04 12:16:00,32.2,23.6,29.64,SSE,158,3.4,5.4,70,0.00,,,0.00,WUHU216HW,2013-01-04 17:16:00,
2013-01-04 12:21:00,32.0,23.4,29.64,SE,135,4.3,5.4,70,0.00,,,0.00,WUHU216HW,2013-01-04 17:21:00,
2013-01-04 12:26:00,31.9,23.2,29.64,South,180,2.5,4.3,70,0.00,,,0.00,WUHU216HW,2013-01-04 17:26:00,
2013-01-04 12:31:00,31.7,23.0,29.64,SSE,158,1.3,4.7,70,0.00,,,0.00,WUHU216HW,2013-01-04 17:31:00,
2013-01-04 12:36:00,31.3,22.7,29.64,East,90,5.8,5.8,70,0.00,,,0.00,WUHU216HW,2013-01-04 17:36:00,
2013-01-04 12:41:00,32.0,23.0,29.63,SE,135,1.8,5.8,69,0.00,,,0.00,WUHU216HW,2013-01-04 17:41:00,
2013-01-04 12:46:00,32.0,23.0,29.63,ENE,68,1.3,3.4,69,0.00,,,0.00,WUHU216HW,2013-01-04 17:46:00,
2013-01-04 12:51:00,32.0,23.4,29.63,SE,135,1.8,3.4,70,0.00,,,0.00,WUHU216HW,2013-01-04 17:51:00,
2013-01-04 12:56:00,31.9,23.2,29.62,SE,135,1.1,2.7,70,0.00,,,0.00,WUHU216HW,2013-01-04 17:56:00,
2013-01-04 13:01:00,31.9,23.6,29.63,SW,225,1.6,2.2,71,0.00,,,0.00,WUHU216HW,2013-01-04 18:01:00,
2013-01-04 13:06:00,31.7,23.0,29.62,WNW,293,2.2,9.8,70,0.00,,,0.00,WUHU216HW,2013-01-04 18:06:00,
2013-01-04 13:11:00,32.0,23.4,29.62,SE,135,2.5,9.8,70,0.00,,,0.00,WUHU216HW,2013-01-04 18:11:00,
2013-01-04 13:16:00,32.0,23.4,29.62,WSW,248,1.3,4.0,70,0.00,,,0.00,WUHU216HW,2013-01-04 18:16:00,
2013-01-04 13:21:00,31.9,23.6,29.62,SSE,158,3.4,3.6,71,0.00,,,0.00,WUHU216HW,2013-01-04 18:21:00,
2013-01-04 13:26:00,31.5,23.5,29.62,SW,225,0.7,3.4,72,0.00,,,0.00,WUHU216HW,2013-01-04 18:26:00,
2013-01-04 13:31:00,31.3,23.7,29.62,West,270,1.8,2.0,73,0.00,,,0.00,WUHU216HW,2013-01-04 18:31:00,
2013-01-04 13:36:00,31.3,23.7,29.62,SSE,158,3.4,3.4,73,0.00,,,0.00,WUHU216HW,2013-01-04 18:36:00,
2013-01-04 13:41:00,31.5,23.9,29.62,SSE,158,1.8,3.4,73,0.00,,,0.00,WUHU216HW,2013-01-04 18:41:00,
2013-01-04 13:46:00,31.5,23.9,29.62,SE,135,0.9,2.7,73,0.00,,,0.00,WUHU216HW,2013-01-04 18:46:00,
2013-01-04 13:51:00,31.3,23.7,29.62,SW,225,0.2,1.1,73,0.00,,,0.00,WUHU216HW,2013-01-04 18:51:00,
2013-01-04 13:56:00,31.3,23.7,29.63,South,180,0.7,1.8,73,0.00,,,0.00,WUHU216HW,2013-01-04 18:56:00,
2013-01-04 14:01:00,31.3,23.7,29.63,SE,135,1.1,2.2,73,0.00,,,0.00,WUHU216HW,2013-01-04 19:01:00,
2013-01-04 14:06:00,31.3,23.7,29.63,East,90,0.2,2.2,73,0.00,,,0.00,WUHU216HW,2013-01-04 19:06:00,
2013-01-04 14:11:00,31.3,23.9,29.63,South,180,0.0,1.6,74,0.00,,,0.00,WUHU216HW,2013-01-04 19:11:00,
2013-01-04 14:16:00,31.1,23.8,29.63,SE,135,0.0,1.6,74,0.00,,,0.00,WUHU216HW,2013-01-04 19:16:00,
2013-01-04 14:21:00,31.0,23.6,29.63,SSE,158,4.7,4.7,74,0.00,,,0.00,WUHU216HW,2013-01-04 19:21:00,
2013-01-04 14:26:00,30.8,23.4,29.63,SW,225,0.4,4.7,74,0.00,,,0.00,WUHU216HW,2013-01-04 19:26:00,
2013-01-04 14:31:00,30.6,23.6,29.63,SSE,158,3.1,4.5,75,0.00,,,0.00,WUHU216HW,2013-01-04 19:31:00,
2013-01-04 14:36:00,30.6,23.6,29.63,SSW,203,0.2,3.1,75,0.00,,,0.00,WUHU216HW,2013-01-04 19:36:00,
2013-01-04 14:41:00,30.6,23.6,29.63,South,180,0.9,2.9,75,0.00,,,0.00,WUHU216HW,2013-01-04 19:41:00,
2013-01-04 14:46:00,30.6,24.0,29.63,SSE,158,1.1,1.8,76,0.00,,,0.00,WUHU216HW,2013-01-04 19:46:00,
2013-01-04 14:51:00,30.6,23.6,29.62,SSE,158,3.1,3.1,75,0.00,,,0.00,WUHU216HW,2013-01-04 19:51:00,
2013-01-04 14:56:00,30.4,23.8,29.62,SSE,158,1.6,3.1,76,0.00,,,0.00,WUHU216HW,2013-01-04 19:56:00,
2013-01-04 15:01:00,30.4,23.8,29.62,SSE,158,1.1,2.2,76,0.00,,,0.00,WUHU216HW,2013-01-04 20:01:00,
2013-01-04 15:06:00,30.4,23.8,29.62,South,180,0.0,2.2,76,0.00,,,0.00,WUHU216HW,2013-01-04 20:06:00,
2013-01-04 15:11:00,30.2,23.6,29.62,SSE,158,0.0,2.0,76,0.00,,,0.00,WUHU216HW,2013-01-04 20:11:00,
2013-01-04 15:16:00,30.4,23.8,29.63,SW,225,0.0,1.6,76,0.00,,,0.00,WUHU216HW,2013-01-04 20:16:00,
2013-01-04 15:21:00,30.4,23.8,29.63,SE,135,2.5,2.5,76,0.00,,,0.00,WUHU216HW,2013-01-04 20:21:00,
2013-01-04 15:26:00,30.2,23.6,29.63,SSE,158,0.4,2.7,76,0.00,,,0.00,WUHU216HW,2013-01-04 20:26:00,
2013-01-04 15:32:00,30.2,23.6,29.63,SSW,203,0.0,2.7,76,0.00,,,0.00,WUHU216HW,2013-01-04 20:32:00,
2013-01-04 15:37:00,30.1,23.4,29.62,WSW,248,0.4,1.8,76,0.00,,,0.00,WUHU216HW,2013-01-04 20:37:00,
2013-01-04 15:42:00,30.1,23.4,29.63,SSE,158,0.2,1.8,76,0.00,,,0.00,WUHU216HW,2013-01-04 20:42:00,
2013-01-04 15:47:00,29.9,23.2,29.62,SSE,158,0.7,1.3,76,0.00,,,0.00,WUHU216HW,2013-01-04 20:47:00,
2013-01-04 15:52:00,29.9,23.2,29.63,SSW,203,0.7,0.9,76,0.00,,,0.00,WUHU216HW,2013-01-04 20:52:00,
2013-01-04 15:57:00,29.9,23.2,29.63,SSW,203,0.2,2.0,76,0.00,,,0.00,WUHU216HW,2013-01-04 20:57:00,
2013-01-04 16:02:00,29.9,23.2,29.63,SSE,158,2.5,2.5,76,0.00,,,0.00,WUHU216HW,2013-01-04 21:02:00,
2013-01-04 16:07:00,29.9,22.9,29.63,SSE,158,1.3,2.9,75,0.00,,,0.00,WUHU216HW,2013-01-04 21:07:00,
2013-01-04 16:12:00,29.9,23.2,29.63,WSW,248,0.9,2.9,76,0.00,,,0.00,WUHU216HW,2013-01-04 21:12:00,
2013-01-04 16:17:00,29.9,22.9,29.63,SSE,158,2.0,2.5,75,0.00,,,0.00,WUHU216HW,2013-01-04 21:17:00,
2013-01-04 16:22:00,29.7,22.7,29.63,SE,135,1.8,2.5,75,0.00,,,0.00,WUHU216HW,2013-01-04 21:22:00,
2013-01-04 16:27:00,29.9,22.9,29.63,SSW,203,0.9,2.9,75,0.00,,,0.00,WUHU216HW,2013-01-04 21:27:00,
2013-01-04 16:32:00,29.7,22.7,29.62,SSE,158,0.9,2.9,75,0.00,,,0.00,WUHU216HW,2013-01-04 21:32:00,
2013-01-04 16:37:00,29.5,22.5,29.63,South,180,1.1,1.8,75,0.00,,,0.00,WUHU216HW,2013-01-04 21:37:00,
2013-01-04 16:42:00,29.3,22.4,29.63,SSE,158,2.2,2.2,75,0.00,,,0.00,WUHU216HW,2013-01-04 21:42:00,
2013-01-04 16:47:00,29.2,22.2,29.62,SSE,158,1.1,2.2,75,0.00,,,0.00,WUHU216HW,2013-01-04 21:47:00,
2013-01-04 16:52:00,29.2,22.5,29.62,SSE,158,0.7,1.6,76,0.00,,,0.00,WUHU216HW,2013-01-04 21:52:00,
2013-01-04 16:57:00,29.2,22.5,29.63,SE,135,1.1,1.6,76,0.00,,,0.00,WUHU216HW,2013-01-04 21:57:00,
2013-01-04 17:02:00,29.0,22.3,29.62,SE,135,0.4,1.6,76,0.00,,,0.00,WUHU216HW,2013-01-04 22:02:00,
2013-01-04 17:07:00,29.0,22.3,29.62,SSE,158,2.5,2.5,76,0.00,,,0.00,WUHU216HW,2013-01-04 22:07:00,
2013-01-04 17:12:00,29.0,22.3,29.62,SE,135,1.1,2.5,76,0.00,,,0.00,WUHU216HW,2013-01-04 22:12:00,
2013-01-04 17:17:00,29.0,22.3,29.63,SSE,158,0.4,1.1,76,0.00,,,0.00,WUHU216HW,2013-01-04 22:17:00,
2013-01-04 17:22:00,29.0,22.3,29.63,WSW,248,0.9,2.2,76,0.00,,,0.00,WUHU216HW,2013-01-04 22:22:00,
2013-01-04 17:27:00,29.0,22.3,29.63,WSW,248,0.7,2.2,76,0.00,,,0.00,WUHU216HW,2013-01-04 22:27:00,
2013-01-04 17:32:00,28.8,22.1,29.63,SW,225,0.2,1.1,76,0.00,,,0.00,WUHU216HW,2013-01-04 22:32:00,
2013-01-04 17:37:00,28.8,22.1,29.63,SSE,158,0.2,1.1,76,0.00,,,0.00,WUHU216HW,2013-01-04 22:37:00,
2013-01-04 17:42:00,28.8,21.9,29.63,SW,225,0.2,1.1,75,0.00,,,0.00,WUHU216HW,2013-01-04 22:42:00,
2013-01-04 17:47:00,28.8,21.9,29.63,SE,135,0.4,1.3,75,0.00,,,0.00,WUHU216HW,2013-01-04 22:47:00,
2013-01-04 17:52:00,28.8,21.9,29.63,SSW,203,0.0,1.3,75,0.00,,,0.00,WUHU216HW,2013-01-04 22:52:00,
2013-01-04 17:57:00,28.8,21.9,29.63,SSE,158,1.3,1.8,75,0.00,,,0.00,WUHU216HW,2013-01-04 22:57:00,
2013-01-04 18:02:00,28.6,21.7,29.63,SE,135,1.6,1.8,75,0.00,,,0.00,WUHU216HW,2013-01-04 23:02:00,
2013-01-04 18:07:00,28.6,21.7,29.63,SSE,158,1.1,2.0,75,0.00,,,0.00,WUHU216HW,2013-01-04 23:07:00,
2013-01-04 18:12:00,28.6,21.7,29.63,SW,225,0.4,2.0,75,0.00,,,0.00,WUHU216HW,2013-01-04 23:12:00,
2013-01-04 18:17:00,28.4,21.5,29.63,SSE,158,0.4,1.8,75,0.00,,,0.00,WUHU216HW,2013-01-04 23:17:00,
2013-01-04 18:22:00,28.6,21.3,29.63,WSW,248,1.6,1.8,74,0.00,,,0.00,WUHU216HW,2013-01-04 23:22:00,
2013-01-04 18:27:00,28.6,21.3,29.63,SE,135,1.6,1.6,74,0.00,,,0.00,WUHU216HW,2013-01-04 23:27:00,
2013-01-04 18:32:00,28.8,21.5,29.63,SSE,158,2.0,2.2,74,0.00,,,0.00,WUHU216HW,2013-01-04 23:32:00,
2013-01-04 18:37:00,28.6,21.3,29.63,SSE,158,0.4,2.2,74,0.00,,,0.00,WUHU216HW,2013-01-04 23:37:00,
2013-01-04 18:42:00,28.8,21.5,29.63,SW,225,0.4,1.8,74,0.00,,,0.00,WUHU216HW,2013-01-04 23:42:00,
2013-01-04 18:47:00,28.8,21.5,29.63,SW,225,0.0,1.6,74,0.00,,,0.00,WUHU216HW,2013-01-04 23:47:00,
2013-01-04 18:52:00,29.0,21.4,29.64,WSW,248,0.0,1.3,73,0.00,,,0.00,WUHU216HW,2013-01-04 23:52:00,
2013-01-04 18:57:00,29.0,21.4,29.63,SSE,158,0.7,1.3,73,0.00,,,0.00,WUHU216HW,2013-01-04 23:57:00,
2013-01-04 19:02:00,29.0,21.1,29.64,WSW,248,0.7,0.9,72,0.00,,,0.00,WUHU216HW,2013-01-05 00:02:00,
2013-01-04 19:07:00,29.2,20.6,29.64,North,0,1.1,1.3,70,0.00,,,0.00,WUHU216HW,2013-01-05 00:07:00,
2013-01-04 19:12:00,29.3,20.8,29.64,ENE,68,1.8,2.0,70,0.00,,,0.00,WUHU216HW,2013-01-05 00:12:00,
2013-01-04 19:17:00,29.3,21.4,29.64,SW,225,1.1,2.0,72,0.00,,,0.00,WUHU216HW,2013-01-05 00:17:00,
2013-01-04 19:23:00,29.5,21.6,29.64,SW,225,1.8,1.8,72,0.00,,,0.00,WUHU216HW,2013-01-05 00:23:00,
2013-01-04 19:28:00,29.7,21.8,29.64,North,0,1.1,4.0,72,0.00,,,0.00,WUHU216HW,2013-01-05 00:28:00,
2013-01-04 19:33:00,29.7,22.1,29.64,South,180,0.0,4.0,73,0.00,,,0.00,WUHU216HW,2013-01-05 00:33:00,
2013-01-04 19:38:00,29.9,22.2,29.63,North,0,2.5,2.5,73,0.00,,,0.00,WUHU216HW,2013-01-05 00:38:00,
2013-01-04 19:43:00,30.1,22.4,29.63,SSE,158,1.6,3.6,73,0.00,,,0.00,WUHU216HW,2013-01-05 00:43:00,
2013-01-04 19:48:00,29.9,22.6,29.63,SSW,203,0.4,3.6,74,0.00,,,0.00,WUHU216HW,2013-01-05 00:48:00,
2013-01-04 19:53:00,29.9,22.2,29.63,NNW,338,0.7,2.2,73,0.00,,,0.00,WUHU216HW,2013-01-05 00:53:00,
2013-01-04 19:58:00,29.9,22.6,29.63,NNE,23,0.2,2.2,74,0.00,,,0.00,WUHU216HW,2013-01-05 00:58:00,
2013-01-04 20:03:00,29.9,22.6,29.63,WNW,293,0.7,2.0,74,0.00,,,0.00,WUHU216HW,2013-01-05 01:03:00,
2013-01-04 20:08:00,29.9,22.2,29.64,SE,135,1.1,2.0,73,0.00,,,0.00,WUHU216HW,2013-01-05 01:08:00,
2013-01-04 20:13:00,29.9,22.6,29.64,North,0,1.1,4.5,74,0.00,,,0.00,WUHU216HW,2013-01-05 01:13:00,
2013-01-04 20:18:00,31.1,24.1,29.64,NNE,23,2.0,4.5,75,0.00,,,0.00,WUHU216HW,2013-01-05 01:18:00,
2013-01-04 20:23:00,31.7,24.7,29.64,SW,225,0.7,4.3,75,0.00,,,0.00,WUHU216HW,2013-01-05 01:23:00,
2013-01-04 20:28:00,31.9,24.8,29.64,SE,135,1.1,2.7,75,0.00,,,0.00,WUHU216HW,2013-01-05 01:28:00,
2013-01-04 20:33:00,31.7,24.7,29.64,SW,225,0.7,2.7,75,0.00,,,0.00,WUHU216HW,2013-01-05 01:33:00,
2013-01-04 20:38:00,31.1,24.1,29.64,NNE,23,1.6,1.6,75,0.00,,,0.00,WUHU216HW,2013-01-05 01:38:00,
2013-01-04 20:43:00,31.1,24.5,29.64,NE,45,7.6,7.6,76,0.00,,,0.00,WUHU216HW,2013-01-05 01:43:00,
2013-01-04 20:48:00,31.9,24.5,29.64,ENE,68,2.0,7.6,74,0.00,,,0.00,WUHU216HW,2013-01-05 01:48:00,
2013-01-04 20:53:00,32.4,24.7,29.64,ENE,68,2.7,5.4,73,0.00,,,0.00,WUHU216HW,2013-01-05 01:53:00,
2013-01-04 20:58:00,32.6,24.8,29.64,NNW,338,1.8,5.4,73,0.00,,,0.00,WUHU216HW,2013-01-05 01:58:00,
2013-01-04 21:03:00,32.8,25.0,29.64,NNE,23,2.9,5.4,73,0.00,,,0.00,WUHU216HW,2013-01-05 02:03:00,
2013-01-04 21:08:00,32.6,24.8,29.65,NW,315,1.1,4.0,73,0.00,,,0.00,WUHU216HW,2013-01-05 02:08:00,
2013-01-04 21:13:00,32.4,25.0,29.64,North,0,0.7,3.4,74,0.00,,,0.00,WUHU216HW,2013-01-05 02:13:00,
2013-01-04 21:18:00,32.2,24.8,29.65,NNE,23,0.2,2.5,74,0.00,,,0.00,WUHU216HW,2013-01-05 02:18:00,
2013-01-04 21:23:00,32.0,25.0,29.64,WSW,248,1.3,2.5,75,0.00,,,0.00,WUHU216HW,2013-01-05 02:23:00,
2013-01-04 21:28:00,32.0,25.0,29.64,NNW,338,1.8,2.0,75,0.00,,,0.00,WUHU216HW,2013-01-05 02:28:00,
2013-01-04 21:33:00,32.4,25.0,29.64,NNW,338,2.0,5.8,74,0.00,,,0.00,WUHU216HW,2013-01-05 02:33:00,
2013-01-04 21:38:00,32.8,25.4,29.64,North,0,0.7,5.8,74,0.00,,,0.00,WUHU216HW,2013-01-05 02:38:00,
2013-01-04 21:43:00,32.8,25.4,29.64,West,270,0.0,5.1,74,0.00,,,0.00,WUHU216HW,2013-01-05 02:43:00,
2013-01-04 21:48:00,32.6,25.2,29.64,North,0,1.8,5.1,74,0.00,,,0.00,WUHU216HW,2013-01-05 02:48:00,
2013-01-04 21:53:00,32.6,25.2,29.64,NNW,338,0.4,5.1,74,0.00,,,0.00,WUHU216HW,2013-01-05 02:53:00,
2013-01-04 21:58:00,32.2,25.2,29.64,North,0,2.0,2.0,75,0.00,,,0.00,WUHU216HW,2013-01-05 02:58:00,
2013-01-04 22:03:00,32.0,25.0,29.64,NE,45,1.8,2.9,75,0.00,,,0.00,WUHU216HW,2013-01-05 03:03:00,
2013-01-04 22:08:00,32.2,25.2,29.65,ENE,68,2.0,5.1,75,0.00,,,0.00,WUHU216HW,2013-01-05 03:08:00,
2013-01-04 22:13:00,32.2,25.2,29.64,South,180,3.1,5.1,75,0.00,,,0.00,WUHU216HW,2013-01-05 03:13:00,
2013-01-04 22:18:00,32.2,25.2,29.65,NW,315,3.1,4.0,75,0.00,,,0.00,WUHU216HW,2013-01-05 03:18:00,
2013-01-04 22:23:00,32.2,25.2,29.65,North,0,0.4,4.0,75,0.00,,,0.00,WUHU216HW,2013-01-05 03:23:00,
2013-01-04 22:28:00,32.4,25.0,29.65,NNE,23,3.8,3.8,74,0.00,,,0.00,WUHU216HW,2013-01-05 03:28:00,
2013-01-04 22:33:00,32.4,25.4,29.65,NW,315,0.4,3.8,75,0.00,,,0.00,WUHU216HW,2013-01-05 03:33:00,
2013-01-04 22:38:00,32.2,25.2,29.65,North,0,0.2,2.7,75,0.00,,,0.00,WUHU216HW,2013-01-05 03:38:00,
2013-01-04 22:43:00,32.0,25.0,29.65,NNE,23,3.6,3.8,75,0.00,,,0.00,WUHU216HW,2013-01-05 03:43:00,
2013-01-04 22:48:00,32.0,25.0,29.65,West,270,2.2,3.8,75,0.00,,,0.00,WUHU216HW,2013-01-05 03:48:00,
2013-01-04 22:53:00,32.0,25.0,29.65,NNE,23,1.6,5.4,75,0.00,,,0.00,WUHU216HW,2013-01-05 03:53:00,
2013-01-04 22:58:00,32.0,25.0,29.65,SE,135,1.3,5.4,75,0.00,,,0.00,WUHU216HW,2013-01-05 03:58:00,
2013-01-04 23:03:00,32.0,24.7,29.65,NE,45,0.4,2.5,74,0.00,,,0.00,WUHU216HW,2013-01-05 04:03:00,
2013-01-04 23:08:00,32.2,25.2,29.65,SW,225,1.6,2.5,75,0.00,,,0.00,WUHU216HW,2013-01-05 04:08:00,
2013-01-04 23:13:00,32.2,24.6,29.66,North,0,1.8,5.1,73,0.00,,,0.00,WUHU216HW,2013-01-05 04:13:00,
2013-01-04 23:18:00,32.2,24.6,29.66,ENE,68,0.9,5.1,73,0.00,,,0.00,WUHU216HW,2013-01-05 04:18:00,
2013-01-04 23:23:00,32.6,24.8,29.66,ENE,68,2.5,8.3,73,0.00,,,0.00,WUHU216HW,2013-01-05 04:23:00,
2013-01-04 23:28:00,32.6,24.8,29.66,ENE,68,1.8,8.3,73,0.00,,,0.00,WUHU216HW,2013-01-05 04:28:00,
2013-01-04 23:34:00,32.8,24.7,29.66,North,0,2.5,6.3,72,0.00,,,0.00,WUHU216HW,2013-01-05 04:34:00,
2013-01-04 23:39:00,32.8,24.4,29.66,NNW,338,2.2,4.7,71,0.00,,,0.00,WUHU216HW,2013-01-05 04:39:00,
2013-01-04 23:44:00,32.8,24.7,29.66,East,90,0.7,4.7,72,0.00,,,0.00,WUHU216HW,2013-01-05 04:44:00,
2013-01-04 23:49:00,32.8,24.7,29.66,SW,225,0.4,2.9,72,0.00,,,0.00,WUHU216HW,2013-01-05 04:49:00,
2013-01-04 23:54:00,32.6,24.2,29.66,NNE,23,3.8,3.8,71,0.00,,,0.00,WUHU216HW,2013-01-05 04:54:00,
2013-01-04 23:59:00,32.8,24.4,29.67,ENE,68,3.4,3.8,71,0.00,,,0.00,WUHU216HW,2013-01-05 04:59:00,